createdAt,value
2023-05-28T00:00:07.129Z,4.60
2023-05-28T00:02:36.208Z,4.25
2023-05-28T00:05:03.870Z,4.53
2023-05-28T00:07:31.784Z,4.32
2023-05-28T00:09:59.338Z,4.15
2023-05-28T00:12:26.231Z,4.15
2023-05-28T00:14:53.323Z,4.65
2023-05-28T00:17:20.137Z,4.50
2023-05-28T00:19:46.874Z,4.45
2023-05-28T00:22:14.030Z,4.53
2023-05-28T00:24:42.121Z,4.13
2023-05-28T00:27:08.953Z,4.50
2023-05-28T00:29:35.756Z,4.20
2023-05-28T00:32:02.617Z,3.85
2023-05-28T00:34:29.538Z,4.50
2023-05-28T00:36:56.372Z,4.00
2023-05-28T00:39:23.173Z,4.60
2023-05-28T00:42:01.814Z,4.35
2023-05-28T00:44:28.783Z,5.00
2023-05-28T00:46:56.808Z,4.28
2023-05-28T00:49:24.486Z,3.78
2023-05-28T00:51:51.216Z,4.38
2023-05-28T00:54:18.432Z,4.50
2023-05-28T00:56:47.352Z,4.65
2023-05-28T00:59:14.233Z,3.97
2023-05-28T01:01:41.649Z,4.88
2023-05-28T01:04:08.511Z,4.40
2023-05-28T01:06:39.027Z,4.75
2023-05-28T01:09:06.992Z,4.60
2023-05-28T01:11:36.273Z,4.82
2023-05-28T01:14:04.534Z,4.38
2023-05-28T01:16:31.277Z,4.57
2023-05-28T01:18:58.994Z,5.25
2023-05-28T01:21:29.216Z,4.45
2023-05-28T01:23:58.649Z,4.57
2023-05-28T01:26:26.871Z,4.80
2023-05-28T01:28:53.665Z,4.30
2023-05-28T01:31:20.531Z,5.22
2023-05-28T01:33:47.837Z,4.63
2023-05-28T01:36:22.875Z,4.47
2023-05-28T01:38:51.086Z,4.68
2023-05-28T01:41:18.192Z,4.53
2023-05-28T01:43:45.808Z,4.80
2023-05-28T01:46:13.126Z,4.28
2023-05-28T01:48:40.783Z,4.72
2023-05-28T01:51:07.679Z,5.10
2023-05-28T01:53:34.441Z,4.93
2023-05-28T01:56:02.672Z,4.57
2023-05-28T01:58:30.430Z,5.53
2023-05-28T02:01:17.151Z,4.82
2023-05-28T02:03:43.970Z,4.47
2023-05-28T02:06:11.916Z,4.82
2023-05-28T02:08:38.704Z,4.85
2023-05-28T02:11:05.546Z,4.82
2023-05-28T02:13:32.812Z,5.00
2023-05-28T02:15:59.536Z,4.63
2023-05-28T02:18:26.322Z,5.15
2023-05-28T02:20:53.168Z,5.13
2023-05-28T02:23:19.893Z,5.07
2023-05-28T02:25:46.617Z,5.82
2023-05-28T02:28:13.330Z,5.47
2023-05-28T02:30:40.146Z,6.15
2023-05-28T02:33:07.593Z,5.60
2023-05-28T02:35:34.421Z,5.53
2023-05-28T02:38:01.159Z,5.25
2023-05-28T02:40:27.924Z,5.50
2023-05-28T02:42:54.646Z,5.20
2023-05-28T02:45:21.372Z,5.00
2023-05-28T02:47:48.621Z,5.20
2023-05-28T02:50:15.576Z,5.43
2023-05-28T02:52:42.736Z,5.00
2023-05-28T02:55:09.628Z,5.28
2023-05-28T02:57:36.660Z,5.30
2023-05-28T03:00:03.911Z,5.20
2023-05-28T03:02:30.678Z,4.85
2023-05-28T03:04:58.007Z,5.70
2023-05-28T03:07:24.764Z,5.32
2023-05-28T03:09:51.517Z,5.13
2023-05-28T03:12:18.248Z,5.45
2023-05-28T03:14:45.041Z,5.45
2023-05-28T03:17:11.861Z,5.07
2023-05-28T03:19:38.645Z,5.43
2023-05-28T03:22:05.499Z,5.35
2023-05-28T03:24:32.254Z,5.78
2023-05-28T03:27:00.855Z,5.90
2023-05-28T03:29:27.538Z,5.68
2023-05-28T03:31:54.380Z,5.72
2023-05-28T03:34:21.682Z,5.60
2023-05-28T03:36:48.443Z,5.55
2023-05-28T03:39:16.406Z,5.85
2023-05-28T03:41:45.216Z,5.68
2023-05-28T03:44:11.924Z,5.70
2023-05-28T03:46:40.000Z,5.60
2023-05-28T03:49:06.843Z,5.47
2023-05-28T03:51:34.079Z,5.72
2023-05-28T03:54:01.850Z,5.28
2023-05-28T03:56:29.024Z,5.18
2023-05-28T03:58:55.688Z,5.40
2023-05-28T04:01:22.446Z,5.05
2023-05-28T04:03:49.340Z,5.95
2023-05-28T04:06:16.252Z,5.93
2023-05-28T04:08:43.310Z,5.35
2023-05-28T04:11:09.986Z,5.60
2023-05-28T04:13:36.711Z,5.70
2023-05-28T04:16:03.770Z,5.20
2023-05-28T04:18:30.642Z,5.55
2023-05-28T04:20:57.765Z,5.50
2023-05-28T04:23:24.552Z,5.43
2023-05-28T04:25:51.659Z,5.43
2023-05-28T04:28:18.671Z,5.10
2023-05-28T04:30:45.391Z,5.53
2023-05-28T04:33:12.181Z,5.25
2023-05-28T04:35:38.919Z,5.57
2023-05-28T04:38:05.620Z,5.55
2023-05-28T04:40:33.587Z,5.65
2023-05-28T04:43:00.715Z,5.57
2023-05-28T04:45:27.604Z,5.55
2023-05-28T04:47:54.751Z,5.70
2023-05-28T04:50:23.225Z,5.90
2023-05-28T04:52:49.937Z,5.80
2023-05-28T04:55:17.671Z,5.90
2023-05-28T04:57:44.372Z,5.25
2023-05-28T05:00:13.557Z,5.50
2023-05-28T05:02:42.520Z,5.40
2023-05-28T05:05:09.757Z,5.32
2023-05-28T05:07:37.778Z,5.93
2023-05-28T05:10:08.076Z,5.40
2023-05-28T05:12:35.382Z,5.43
2023-05-28T05:15:02.348Z,5.82
2023-05-28T05:17:29.228Z,5.60
2023-05-28T05:19:56.278Z,5.70
2023-05-28T05:22:23.245Z,5.45
2023-05-28T05:24:50.078Z,4.90
2023-05-28T05:27:17.293Z,5.03
2023-05-28T05:29:44.048Z,5.18
2023-05-28T05:32:11.485Z,5.70
2023-05-28T05:34:38.196Z,5.50
2023-05-28T05:37:05.352Z,5.22
2023-05-28T05:39:32.046Z,5.13
2023-05-28T05:41:59.121Z,5.07
2023-05-28T05:44:26.225Z,4.97
2023-05-28T05:46:52.970Z,4.60
2023-05-28T05:49:20.124Z,4.93
2023-05-28T05:51:46.865Z,4.90
2023-05-28T05:54:13.628Z,4.68
2023-05-28T05:56:40.369Z,4.90
2023-05-28T05:59:07.685Z,4.50
2023-05-28T06:01:34.466Z,4.83
2023-05-28T06:04:01.072Z,4.80
2023-05-28T06:06:27.973Z,4.30
2023-05-28T06:08:54.725Z,3.90
2023-05-28T06:11:23.670Z,4.05
2023-05-28T06:13:51.658Z,4.32
2023-05-28T06:16:19.016Z,4.40
2023-05-28T06:18:45.817Z,3.80
2023-05-28T06:21:12.904Z,4.40
2023-05-28T06:23:39.718Z,3.92
2023-05-28T06:26:06.637Z,4.30
2023-05-28T06:28:33.397Z,3.85
2023-05-28T06:31:00.441Z,3.70
2023-05-28T06:33:27.237Z,3.90
2023-05-28T06:35:54.435Z,4.40
2023-05-28T06:38:22.238Z,3.65
2023-05-28T06:40:49.073Z,4.10
2023-05-28T06:43:15.636Z,3.72
2023-05-28T06:45:43.753Z,4.07
2023-05-28T06:48:11.312Z,3.28
2023-05-28T06:50:38.024Z,4.05
2023-05-28T06:53:04.723Z,3.97
2023-05-28T06:55:31.428Z,3.95
2023-05-28T06:57:58.155Z,3.28
2023-05-28T07:00:25.137Z,4.13
2023-05-28T07:02:51.886Z,3.75
2023-05-28T07:05:18.700Z,3.92
2023-05-28T07:07:45.635Z,3.67
2023-05-28T07:10:14.837Z,3.88
2023-05-28T07:12:43.072Z,4.00
2023-05-28T07:15:11.322Z,3.40
2023-05-28T07:17:38.188Z,3.83
2023-05-28T07:20:06.888Z,3.80
2023-05-28T07:22:33.847Z,4.18
2023-05-28T07:25:00.591Z,4.28
2023-05-28T07:27:27.435Z,3.58
2023-05-28T07:29:54.293Z,3.60
2023-05-28T07:32:21.441Z,3.65
2023-05-28T07:34:48.233Z,4.07
2023-05-28T07:37:14.974Z,3.83
2023-05-28T07:39:41.689Z,3.83
2023-05-28T07:42:08.391Z,3.90
2023-05-28T07:44:35.207Z,3.50
2023-05-28T07:47:01.852Z,3.55
2023-05-28T07:49:28.457Z,3.47
2023-05-28T07:51:55.082Z,3.70
2023-05-28T07:54:21.709Z,3.28
2023-05-28T07:56:49.548Z,3.25
2023-05-28T07:59:16.484Z,4.00
2023-05-28T08:01:43.256Z,3.28
2023-05-28T08:04:10.180Z,3.95
2023-05-28T08:06:36.956Z,3.80
2023-05-28T08:09:04.097Z,3.42
2023-05-28T08:11:30.887Z,3.28
2023-05-28T08:13:57.578Z,3.78
2023-05-28T08:16:24.986Z,3.58
2023-05-28T08:18:51.782Z,4.03
2023-05-28T08:21:18.480Z,3.60
2023-05-28T08:23:45.490Z,3.70
2023-05-28T08:26:12.343Z,3.50
2023-05-28T08:28:39.062Z,4.13
2023-05-28T08:31:05.968Z,3.40
2023-05-28T08:33:32.502Z,3.30
2023-05-28T08:36:01.189Z,3.33
2023-05-28T08:38:30.344Z,3.40
2023-05-28T08:40:57.778Z,3.75
2023-05-28T08:43:24.681Z,3.92
2023-05-28T08:45:53.783Z,3.10
2023-05-28T08:48:23.832Z,3.30
2023-05-28T08:50:52.451Z,3.70
2023-05-28T08:53:23.285Z,3.33
2023-05-28T08:55:50.609Z,3.53
2023-05-28T08:58:18.894Z,3.50
2023-05-28T09:00:46.596Z,3.90
2023-05-28T09:03:13.547Z,3.22
2023-05-28T09:05:40.780Z,3.53
2023-05-28T09:08:11.480Z,3.60
2023-05-28T09:10:39.004Z,3.50
2023-05-28T09:13:06.240Z,3.00
2023-05-28T09:15:37.064Z,3.60
2023-05-28T09:18:05.846Z,3.15
2023-05-28T09:20:33.163Z,3.03
2023-05-28T09:23:01.753Z,2.55
2023-05-28T09:25:29.760Z,2.83
2023-05-28T09:27:59.507Z,2.40
2023-05-28T09:30:26.276Z,3.00
2023-05-28T09:33:10.525Z,3.33
2023-05-28T09:35:37.700Z,2.83
2023-05-28T09:38:05.897Z,3.25
2023-05-28T09:40:32.802Z,2.92
2023-05-28T09:42:59.542Z,2.83
2023-05-28T09:45:28.295Z,2.70
2023-05-28T09:47:55.286Z,2.80
2023-05-28T09:50:22.203Z,2.75
2023-05-28T09:52:49.152Z,3.30
2023-05-28T09:55:18.732Z,2.95
2023-05-28T09:57:51.328Z,2.83
2023-05-28T10:00:24.929Z,3.08
2023-05-28T10:03:11.590Z,2.85
2023-05-28T10:05:42.127Z,2.65
2023-05-28T10:08:12.360Z,3.05
2023-05-28T10:10:41.728Z,3.00
2023-05-28T10:13:10.910Z,3.30
2023-05-28T10:15:37.938Z,3.10
2023-05-28T10:18:06.384Z,10.38
2023-05-28T10:20:33.733Z,4.53
2023-05-28T10:23:00.809Z,3.80
2023-05-28T10:25:27.616Z,3.50
2023-05-28T10:28:01.519Z,2.90
2023-05-28T10:30:33.684Z,3.08
2023-05-28T10:33:00.907Z,3.50
2023-05-28T10:35:27.995Z,3.30
2023-05-28T10:38:11.853Z,3.17
2023-05-28T10:40:40.770Z,3.22
2023-05-28T10:43:43.823Z,2.72
2023-05-28T10:46:12.129Z,2.88
2023-05-28T10:48:41.308Z,3.45
2023-05-28T10:51:08.620Z,3.13
2023-05-28T10:53:35.468Z,3.90
2023-05-28T10:56:03.077Z,2.90
2023-05-28T10:58:39.167Z,2.97
2023-05-28T11:01:20.865Z,3.30
2023-05-28T11:03:55.825Z,3.17
2023-05-28T11:06:27.043Z,2.95
2023-05-28T11:08:53.829Z,2.65
2023-05-28T11:11:20.590Z,3.50
2023-05-28T11:13:49.434Z,3.38
2023-05-28T11:16:17.936Z,3.08
2023-05-28T11:19:05.991Z,2.80
2023-05-28T11:21:34.050Z,3.00
2023-05-28T11:24:03.665Z,3.33
2023-05-28T11:26:31.380Z,2.65
2023-05-28T11:28:58.194Z,2.85
2023-05-28T11:31:25.286Z,2.97
2023-05-28T11:33:52.193Z,3.42
2023-05-28T11:36:21.319Z,2.40
2023-05-28T11:38:48.719Z,3.00
2023-05-28T11:41:15.619Z,3.05
2023-05-28T11:43:42.315Z,2.60
2023-05-28T11:46:09.159Z,2.85
2023-05-28T11:48:39.151Z,2.60
2023-05-28T11:51:06.601Z,2.55
2023-05-28T11:53:48.987Z,2.88
2023-05-28T11:56:15.883Z,2.28
2023-05-28T11:58:49.329Z,3.20
2023-05-28T12:01:16.841Z,2.58
2023-05-28T12:03:43.925Z,2.90
2023-05-28T12:06:12.581Z,2.60
2023-05-28T12:08:42.415Z,2.75
2023-05-28T12:11:10.360Z,3.10
2023-05-28T12:13:39.037Z,2.47
2023-05-28T12:16:11.006Z,2.45
2023-05-28T12:18:43.301Z,2.08
2023-05-28T12:21:12.940Z,2.55
2023-05-28T12:23:39.890Z,2.60
2023-05-28T12:26:12.488Z,2.80
2023-05-28T12:28:41.683Z,3.22
2023-05-28T12:31:09.672Z,2.50
2023-05-28T12:33:36.598Z,2.65
2023-05-28T12:36:03.654Z,2.63
2023-05-28T12:38:30.389Z,2.78
2023-05-28T12:40:57.804Z,2.60
2023-05-28T12:43:24.707Z,2.70
2023-05-28T12:45:51.752Z,3.10
2023-05-28T12:48:18.542Z,3.15
2023-05-28T12:50:45.305Z,2.55
2023-05-28T12:53:12.041Z,2.97
2023-05-28T12:55:38.953Z,2.60
2023-05-28T12:58:05.920Z,3.22
2023-05-28T13:00:32.546Z,2.83
2023-05-28T13:03:00.736Z,3.03
2023-05-28T13:05:27.686Z,2.65
2023-05-28T13:07:54.406Z,2.72
2023-05-28T13:10:21.148Z,2.60
2023-05-28T13:12:47.971Z,2.90
2023-05-28T13:15:14.714Z,3.33
2023-05-28T13:17:41.650Z,2.92
2023-05-28T13:20:11.450Z,2.92
2023-05-28T13:22:38.770Z,2.78
2023-05-28T13:25:05.836Z,2.58
2023-05-28T13:27:32.654Z,2.60
2023-05-28T13:29:59.754Z,2.63
2023-05-28T13:32:26.935Z,3.17
2023-05-28T13:34:53.808Z,2.95
2023-05-28T13:37:20.982Z,3.03
2023-05-28T13:39:48.206Z,2.55
2023-05-28T13:42:20.538Z,2.80
2023-05-28T13:44:49.097Z,2.30
2023-05-28T13:47:17.195Z,2.88
2023-05-28T13:49:44.187Z,2.38
2023-05-28T13:52:11.206Z,2.92
2023-05-28T13:54:37.960Z,2.00
2023-05-28T13:57:07.015Z,2.80
2023-05-28T13:59:33.777Z,2.63
2023-05-28T14:02:00.413Z,2.45
2023-05-28T14:04:27.534Z,2.80
2023-05-28T14:06:54.394Z,2.70
2023-05-28T14:09:21.130Z,2.72
2023-05-28T14:12:16.763Z,2.70
2023-05-28T14:14:34.610Z,2.60
2023-05-28T14:17:01.468Z,3.38
2023-05-28T14:19:28.392Z,2.70
2023-05-28T14:21:55.146Z,2.55
2023-05-28T14:24:21.903Z,2.83
2023-05-28T14:26:48.670Z,2.85
2023-05-28T14:29:15.415Z,2.70
2023-05-28T14:31:42.194Z,2.35
2023-05-28T14:34:08.863Z,2.97
2023-05-28T14:36:36.406Z,2.65
2023-05-28T14:39:03.256Z,2.35
2023-05-28T14:41:29.935Z,2.65
2023-05-28T14:43:56.634Z,2.90
2023-05-28T14:46:23.439Z,2.65
2023-05-28T14:48:50.144Z,2.70
2023-05-28T14:51:17.030Z,2.72
2023-05-28T14:53:43.762Z,2.65
2023-05-28T14:56:10.413Z,2.60
2023-05-28T14:58:37.229Z,2.80
2023-05-28T15:01:04.344Z,3.05
2023-05-28T15:03:31.956Z,2.90
2023-05-28T15:05:59.588Z,2.70
2023-05-28T15:08:26.694Z,2.63
2023-05-28T15:10:53.449Z,2.90
2023-05-28T15:13:20.585Z,2.63
2023-05-28T15:15:47.350Z,2.50
2023-05-28T15:18:14.326Z,2.55
2023-05-28T15:20:41.105Z,2.63
2023-05-28T15:23:08.172Z,2.45
2023-05-28T15:25:35.371Z,2.47
2023-05-28T15:28:02.643Z,2.63
2023-05-28T15:30:29.588Z,2.38
2023-05-28T15:32:59.268Z,2.50
2023-05-28T15:35:28.818Z,3.05
2023-05-28T15:37:57.039Z,2.72
2023-05-28T15:40:24.165Z,2.97
2023-05-28T15:42:52.083Z,2.58
2023-05-28T15:45:19.169Z,2.65
2023-05-28T15:47:47.700Z,2.72
2023-05-28T15:50:14.791Z,2.40
2023-05-28T15:52:42.068Z,3.05
2023-05-28T15:55:09.115Z,3.17
2023-05-28T15:57:36.150Z,2.75
2023-05-28T16:00:04.011Z,2.50
2023-05-28T16:02:32.632Z,4.20
2023-05-28T16:04:59.529Z,14.48
2023-05-28T16:07:28.591Z,6.90
2023-05-28T16:09:55.389Z,4.07
2023-05-28T16:12:25.077Z,4.22
2023-05-28T16:14:53.150Z,3.28
2023-05-28T16:17:20.192Z,2.90
2023-05-28T16:19:47.234Z,2.88
2023-05-28T16:22:14.294Z,3.60
2023-05-28T16:24:41.522Z,2.65
2023-05-28T16:27:10.965Z,3.20
2023-05-28T16:29:37.889Z,2.72
2023-05-28T16:32:04.956Z,2.65
2023-05-28T16:34:34.931Z,2.97
2023-05-28T16:37:02.111Z,2.92
2023-05-28T16:39:29.173Z,2.80
2023-05-28T16:41:56.219Z,2.58
2023-05-28T16:44:23.329Z,3.03
2023-05-28T16:46:53.250Z,2.60
2023-05-28T16:49:20.329Z,2.63
2023-05-28T16:51:48.273Z,2.92
2023-05-28T16:54:17.433Z,2.67
2023-05-28T16:56:44.986Z,3.30
2023-05-28T16:59:11.742Z,2.85
2023-05-28T17:01:38.538Z,2.10
2023-05-28T17:04:05.631Z,2.65
2023-05-28T17:06:32.596Z,2.92
2023-05-28T17:08:59.391Z,2.33
2023-05-28T17:11:26.614Z,2.95
2023-05-28T17:13:53.507Z,2.55
2023-05-28T17:16:20.427Z,2.80
2023-05-28T17:18:49.121Z,3.05
2023-05-28T17:21:15.988Z,2.80
2023-05-28T17:23:42.746Z,2.60
2023-05-28T17:26:09.485Z,2.53
2023-05-28T17:28:36.377Z,2.80
2023-05-28T17:31:03.167Z,2.50
2023-05-28T17:33:29.967Z,2.55
2023-05-28T17:35:56.808Z,2.63
2023-05-28T17:38:24.705Z,3.00
2023-05-28T17:40:51.515Z,2.67
2023-05-28T17:43:18.255Z,2.97
2023-05-28T17:45:47.595Z,4.47
2023-05-28T17:48:14.541Z,3.60
2023-05-28T17:50:41.486Z,3.15
2023-05-28T17:53:08.625Z,3.25
2023-05-28T17:55:36.275Z,2.53
2023-05-28T17:58:03.068Z,3.47
2023-05-28T18:00:31.579Z,3.40
2023-05-28T18:02:59.344Z,2.83
2023-05-28T18:05:28.250Z,2.42
2023-05-28T18:07:55.444Z,2.92
2023-05-28T18:10:22.208Z,3.10
2023-05-28T18:12:49.006Z,2.95
2023-05-28T18:15:15.968Z,2.97
2023-05-28T18:17:42.734Z,2.70
2023-05-28T18:20:10.576Z,2.67
2023-05-28T18:22:37.587Z,2.78
2023-05-28T18:25:04.559Z,2.75
2023-05-28T18:27:31.255Z,2.58
2023-05-28T18:29:58.085Z,2.47
2023-05-28T18:32:25.064Z,2.35
2023-05-28T18:34:51.745Z,2.30
2023-05-28T18:37:18.699Z,2.65
2023-05-28T18:39:47.630Z,2.45
2023-05-28T18:42:14.488Z,2.65
2023-05-28T18:44:43.041Z,3.35
2023-05-28T18:47:09.811Z,4.70
2023-05-28T18:49:37.466Z,3.63
2023-05-28T18:52:04.954Z,3.53
2023-05-28T18:54:31.737Z,3.55
2023-05-28T18:57:00.455Z,3.40
2023-05-28T18:59:27.253Z,2.80
2023-05-28T19:01:54.261Z,2.65
2023-05-28T19:04:21.084Z,4.13
2023-05-28T19:06:49.478Z,4.07
2023-05-28T19:09:16.895Z,3.42
2023-05-28T19:11:43.625Z,2.40
2023-05-28T19:14:10.784Z,2.78
2023-05-28T19:16:38.372Z,2.60
2023-05-28T19:19:05.357Z,3.00
2023-05-28T19:21:32.231Z,2.70
2023-05-28T19:23:58.917Z,3.20
2023-05-28T19:26:28.094Z,3.50
2023-05-28T19:28:54.912Z,2.92
2023-05-28T19:31:21.794Z,3.20
2023-05-28T19:33:48.767Z,2.63
2023-05-28T19:36:17.230Z,3.30
2023-05-28T19:38:44.526Z,2.60
2023-05-28T19:41:11.321Z,2.80
2023-05-28T19:43:38.085Z,2.60
2023-05-28T19:46:04.824Z,2.53
2023-05-28T19:48:33.763Z,2.75
2023-05-28T19:51:01.184Z,3.40
2023-05-28T19:53:28.001Z,3.13
2023-05-28T19:55:54.818Z,2.55
2023-05-28T19:58:22.320Z,2.30
2023-05-28T20:00:49.300Z,3.28
2023-05-28T20:03:17.035Z,2.70
2023-05-28T20:05:44.451Z,2.90
2023-05-28T20:08:11.938Z,3.80
2023-05-28T20:10:39.057Z,3.67
2023-05-28T20:13:05.849Z,3.10
2023-05-28T20:15:32.669Z,3.03
2023-05-28T20:17:59.530Z,3.25
2023-05-28T20:20:26.389Z,3.00
2023-05-28T20:22:53.149Z,3.53
2023-05-28T20:25:19.905Z,2.95
2023-05-28T20:27:46.647Z,3.88
2023-05-28T20:30:15.289Z,4.10
2023-05-28T20:32:42.178Z,3.75
2023-05-28T20:35:10.813Z,3.67
2023-05-28T20:37:40.270Z,3.95
2023-05-28T20:40:09.267Z,3.45
2023-05-28T20:42:36.043Z,3.20
2023-05-28T20:45:03.518Z,2.85
2023-05-28T20:47:31.861Z,2.75
2023-05-28T20:49:58.694Z,3.08
2023-05-28T20:52:25.527Z,3.20
2023-05-28T20:54:52.241Z,2.92
2023-05-28T20:57:19.176Z,2.65
2023-05-28T20:59:46.487Z,3.05
2023-05-28T21:02:13.279Z,3.28
2023-05-28T21:04:40.040Z,3.88
2023-05-28T21:07:06.859Z,3.28
2023-05-28T21:09:33.969Z,3.13
2023-05-28T21:12:02.325Z,3.05
2023-05-28T21:14:29.036Z,2.95
2023-05-28T21:16:55.934Z,3.08
2023-05-28T21:19:22.651Z,3.13
2023-05-28T21:21:49.419Z,2.97
2023-05-28T21:24:16.288Z,3.50
2023-05-28T21:26:43.102Z,3.08
2023-05-28T21:29:09.797Z,3.20
2023-05-28T21:31:36.647Z,2.90
2023-05-28T21:34:05.543Z,3.17
2023-05-28T21:36:32.283Z,2.83
2023-05-28T21:38:59.054Z,2.83
2023-05-28T21:41:25.740Z,2.97
2023-05-28T21:43:52.469Z,2.90
2023-05-28T21:46:19.268Z,3.00
2023-05-28T21:48:46.131Z,3.08
2023-05-28T21:51:13.026Z,2.72
2023-05-28T21:53:39.686Z,2.47
2023-05-28T21:56:07.055Z,3.33
2023-05-28T21:58:33.892Z,2.80
2023-05-28T22:01:01.195Z,3.10
2023-05-28T22:03:28.975Z,3.00
2023-05-28T22:05:55.790Z,2.80
2023-05-28T22:08:22.686Z,3.10
2023-05-28T22:10:49.441Z,3.10
2023-05-28T22:13:18.597Z,2.92
2023-05-28T22:15:45.910Z,3.00
2023-05-28T22:18:15.064Z,3.13
2023-05-28T22:20:43.736Z,3.05
2023-05-28T22:23:12.152Z,2.95
2023-05-28T22:25:38.940Z,3.00
2023-05-28T22:28:05.964Z,4.47
2023-05-28T22:30:32.832Z,3.25
2023-05-28T22:33:00.968Z,3.13
2023-05-28T22:35:28.706Z,3.42
2023-05-28T22:37:55.761Z,3.00
2023-05-28T22:40:22.632Z,2.85
2023-05-28T22:42:49.402Z,2.97
2023-05-28T22:45:17.203Z,2.92
2023-05-28T22:47:48.174Z,3.45
2023-05-28T22:50:15.522Z,2.95
2023-05-28T22:52:43.196Z,2.88
2023-05-28T22:55:11.791Z,3.03
2023-05-28T22:57:38.935Z,3.08
2023-05-28T23:00:10.502Z,3.33
2023-05-28T23:02:40.911Z,2.83
2023-05-28T23:05:08.158Z,3.17
2023-05-28T23:07:35.205Z,3.22
2023-05-28T23:10:02.649Z,3.17
2023-05-28T23:12:29.410Z,3.65
2023-05-28T23:14:56.108Z,3.55
2023-05-28T23:17:23.411Z,2.80
2023-05-28T23:19:50.490Z,3.53
2023-05-28T23:22:17.654Z,3.30
2023-05-28T23:24:44.332Z,3.75
2023-05-28T23:27:11.203Z,3.10
2023-05-28T23:29:38.234Z,3.28
2023-05-28T23:32:06.527Z,3.20
2023-05-28T23:34:33.754Z,3.42
2023-05-28T23:37:01.655Z,3.65
2023-05-28T23:39:28.972Z,2.97
2023-05-28T23:41:55.716Z,3.10
2023-05-28T23:44:22.642Z,3.70
2023-05-28T23:46:50.335Z,3.95
2023-05-28T23:49:18.392Z,3.70
2023-05-28T23:51:45.622Z,3.97
2023-05-28T23:54:12.674Z,3.58
2023-05-28T23:56:39.735Z,3.50
2023-05-28T23:59:07.154Z,3.25
